• Join FlightAware (Why Join?)
  • Login
  • US Flag 
12:44AM EDT


 

Airport Tracker/Info


-or-


 

Live Flight TrackerFlight Track Log ✈ VRD187 ✈ 11-Jul-2013 ✈ KEWR - KSFO

Flight Track Log - Related Links

Times and Time Zones

All times are in EDT time to prevent confusion due to time zone crossing. See the VRD187 flight status page for this flight to view local times or setup timezone preferences in your user account.

Time Position Orientation Groundspeed Altitude Reporting Facility
EDT Latitude Longitude Course Direction KTS MPH feet Rate Location/Type
12:58PM 40.7380 -74.1120 42° Northeast 209 241 2,300  Level FlightAware
12:58PM 40.7490 -74.1070 19° North 221 254 2,500 1,200 Climbing FlightAware
12:59PM 40.7760 -74.1270 331° Northwest 261 300 3,100 1,860 Climbing FlightAware
12:59PM 40.7810 -74.1510 285° West 266 306 3,900 3,120 Climbing FlightAware
12:59PM 40.7740 -74.1950 258° West 263 303 5,400 3,060 Climbing FlightAware
01:00PM 40.7660 -74.2370 256° West 262 302 6,700 2,640 Climbing FlightAware
01:00PM 40.7710 -74.2770 279° West 268 308 7,700 2,460 Climbing FlightAware
01:00PM 40.7751 -74.2988 284° West 272 313 8,300 2,880 Climbing FlightAware ADS-B
01:01PM 40.7794 -74.3246 282° West 271 312 9,100 2,820 Climbing FlightAware ADS-B
01:01PM 40.7841 -74.3535 282° West 272 313 9,900 1,920 Climbing FlightAware ADS-B
01:02PM 40.7930 -74.4061 283° West 295 339 10,700 1,320 Climbing FlightAware ADS-B
01:02PM 40.8023 -74.4622 282° West 320 368 11,300 1,020 Climbing FlightAware ADS-B
01:03PM 40.8128 -74.5251 282° West 350 403 11,800 1,200 Climbing FlightAware ADS-B
01:03PM 40.8238 -74.5898 283° West 367 422 12,600 1,860 Climbing FlightAware ADS-B
01:04PM 40.8352 -74.6575 283° West 373 429 13,700 2,040 Climbing FlightAware ADS-B
01:04PM 40.8465 -74.7255 282° West 377 434 14,700 2,040 Climbing FlightAware ADS-B
01:05PM 40.8579 -74.7945 282° West 378 435 15,800 1,860 Climbing FlightAware ADS-B
01:05PM 40.8694 -74.8643 282° West 386 444 16,600 1,620 Climbing FlightAware ADS-B
01:06PM 40.8806 -74.9332 282° West 391 450 17,500 1,500 Climbing FlightAware ADS-B
01:06PM 40.8931 -75.0097 282° West 400 460 18,200 1,500 Climbing FlightAware ADS-B
01:06PM 40.8952 -75.0319 277° West 399 459 18,500 2,160 Climbing FlightAware ADS-B
01:06PM 40.8943 -75.0562 267° West 398 458 18,900 2,160 Climbing FlightAware ADS-B
01:07PM 40.8910 -75.0774 258° West 395 455 19,200 2,100 Climbing FlightAware ADS-B
01:07PM 40.8768 -75.1481 255° West 392 451 20,300 2,040 Climbing FlightAware ADS-B
01:08PM 40.8642 -75.2167 256° West 389 448 21,300 1,500 Climbing FlightAware ADS-B
01:08PM 40.8511 -75.2875 256° West 397 457 21,800 960 Climbing FlightAware ADS-B
01:09PM 40.8375 -75.3591 256° West 402 463 22,300 960 Climbing FlightAware ADS-B
01:09PM 40.8234 -75.4331 256° West 409 471 22,800 1,020 Climbing FlightAware ADS-B
01:10PM 40.8089 -75.5092 256° West 415 478 23,400 1,140 Climbing FlightAware ADS-B
01:10PM 40.7944 -75.5841 256° West 417 480 24,000 1,200 Climbing FlightAware ADS-B
01:11PM 40.7790 -75.6642 256° West 416 479 24,700 900 Climbing FlightAware ADS-B
01:11PM 40.7646 -75.7388 256° West 424 488 25,000 840 Climbing FlightAware ADS-B
01:12PM 40.7496 -75.8165 256° West 426 490 25,600 1,260 Climbing FlightAware ADS-B
01:12PM 40.7323 -75.9056 256° West 424 488 26,400 1,140 Climbing FlightAware ADS-B
01:13PM 40.7168 -75.9847 256° West 427 491 26,900 960 Climbing FlightAware ADS-B
01:13PM 40.7018 -76.0605 255° West 428 493 27,400 1,380 Climbing FlightAware ADS-B
01:14PM 40.6896 -76.1260 256° West 424 488 28,200 1,620 Climbing FlightAware ADS-B
01:14PM 40.6837 -76.1721 260° West 425 489 28,600 1,320 Climbing FlightAware ADS-B
01:15PM 40.6796 -76.2514 266° West 427 491 29,300 1,380 Climbing FlightAware ADS-B
01:15PM 40.6797 -76.2724 270° West 427 491 29,500 1,560 Climbing FlightAware ADS-B
01:15PM 40.6834 -76.3409 274° West 428 493 30,200 1,620 Climbing FlightAware ADS-B
01:16PM 40.6916 -76.4056 280° West 429 494 30,900 1,560 Climbing FlightAware ADS-B
01:16PM 40.7031 -76.4822 281° West 426 490 31,700 1,560 Climbing FlightAware ADS-B
01:17PM 40.7142 -76.5589 281° West 423 487 32,500 1,620 Climbing FlightAware ADS-B
01:17PM 40.7260 -76.6401 281° West 418 481 33,400 1,200 Climbing FlightAware ADS-B
01:18PM 40.7373 -76.7172 281° West 423 487 33,800 1,320 Climbing FlightAware ADS-B
01:18PM 40.7487 -76.7949 281° West 415 478 34,800 1,680 Climbing FlightAware ADS-B
01:19PM 40.7614 -76.8829 281° West 408 470 35,700 1,080 Climbing FlightAware ADS-B
01:19PM 40.7721 -76.9570 281° West 413 475 36,000 240 Climbing FlightAware ADS-B
01:20PM 40.7820 -77.0280 280° West 419 482 36,000  Level FlightAware
01:20PM 40.7903 -77.0828 281° West 419 482 36,000  Level FlightAware ADS-B
01:21PM 40.8025 -77.1692 281° West 419 482 36,000  Level FlightAware ADS-B
01:21PM 40.8137 -77.2489 281° West 417 480 36,000  Level FlightAware ADS-B
01:22PM 40.8245 -77.3270 280° West 416 479 36,000  Level FlightAware ADS-B
01:22PM 40.8356 -77.4062 281° West 417 480 36,000  Level FlightAware ADS-B
01:23PM 40.8513 -77.5179 281° West 417 480 36,000  Level FlightAware ADS-B
01:24PM 40.8620 -77.5940 281° West 415 478 36,000  Level FlightAware
01:24PM 40.8804 -77.7283 280° West 415 478 36,000  Level FlightAware ADS-B
01:25PM 40.8920 -77.8160 280° West 414 476 36,000  Level FlightAware
01:26PM 40.9016 -77.8839 281° West 415 478 36,000  Level FlightAware ADS-B
01:26PM 40.9200 -78.0190 280° West 416 479 36,000  Level FlightAware
01:27PM 40.9340 -78.1310 279° West 417 480 36,000  Level FlightAware
01:28PM 40.9460 -78.2310 279° West 418 481 36,000  Level FlightAware
01:29PM 40.9590 -78.3360 279° West 417 480 36,000  Level FlightAware
01:29PM 40.9690 -78.4280 278° West 414 476 36,000  Level FlightAware
01:30PM 40.9720 -78.5460 272° West 413 475 36,000  Level FlightAware
01:31PM 40.9760 -78.6770 272° West 413 475 36,000  Level FlightAware
01:32PM 40.9790 -78.7870 272° West 413 475 36,000  Level FlightAware
01:32PM 40.9810 -78.8940 271° West 412 474 36,000  Level FlightAware
01:33PM 40.9840 -79.0140 272° West 402 463 36,000  Level FlightAware
01:34PM 40.9850 -79.1120 271° West 403 464 36,000  Level FlightAware
01:34PM 40.9820 -79.2200 268° West 402 463 36,000  Level FlightAware
01:35PM 40.9790 -79.3050 267° West 404 465 36,000  Level FlightAware
01:36PM 40.9760 -79.4050 268° West 405 466 36,000  Level FlightAware
01:37PM 40.9720 -79.5320 268° West 403 464 36,000  Level FlightAware
01:38PM 40.9680 -79.6730 268° West 402 463 36,000  Level FlightAware
01:38PM 40.9640 -79.7760 267° West 403 464 36,000  Level FlightAware
01:39PM 40.9620 -79.8620 268° West 403 464 36,000  Level FlightAware
01:40PM 40.9580 -79.9710 267° West 403 464 36,000  Level FlightAware
01:40PM 40.9540 -80.0780 267° West 404 465 36,000  Level FlightAware
01:41PM 40.9520 -80.1570 268° West 405 466 36,000  Level FlightAware
01:42PM 40.9470 -80.2710 267° West 404 465 36,000  Level FlightAware
01:42PM 40.9440 -80.3700 268° West 405 466 36,000  Level FlightAware
01:43PM 40.9400 -80.4730 267° West 405 466 36,000  Level FlightAware
01:44PM 40.9360 -80.5770 267° West 405 466 36,000  Level FlightAware
01:44PM 40.9320 -80.6760 267° West 403 464 36,000  Level FlightAware
01:45PM 40.9270 -80.7790 266° West 404 465 36,000  Level FlightAware
01:46PM 40.9240 -80.8760 268° West 403 464 36,000  Level FlightAware
01:46PM 40.9200 -80.9760 267° West 402 463 36,000  Level FlightAware
01:47PM 40.9150 -81.0740 266° West 400 460 36,000  Level FlightAware
01:48PM 40.9110 -81.1660 267° West 398 458 36,000  Level FlightAware
01:48PM 40.9060 -81.2830 267° West 399 459 36,000  Level FlightAware
01:49PM 40.9010 -81.3790 266° West 399 459 36,000  Level FlightAware
01:50PM 40.8970 -81.4810 267° West 400 460 36,000  Level FlightAware
01:50PM 40.8920 -81.5840 266° West 401 461 36,000  Level FlightAware
01:51PM 40.8870 -81.6770 266° West 401 461 36,000  Level FlightAware
01:52PM 40.8830 -81.7710 267° West 401 461 36,000  Level FlightAware
01:53PM 40.8770 -81.8820 266° West 403 464 36,000  Level FlightAware
01:53PM 40.8720 -81.9760 266° West 403 464 36,000  Level FlightAware
01:54PM 40.8670 -82.0800 266° West 405 466 36,000  Level FlightAware
01:55PM 40.8610 -82.1870 266° West 406 467 36,000  Level FlightAware
01:55PM 40.8550 -82.2970 266° West 408 470 36,000  Level FlightAware
01:56PM 40.8500 -82.3970 266° West 408 470 36,000  Level FlightAware
01:57PM 40.8450 -82.4930 266° West 408 470 36,000  Level FlightAware
01:57PM 40.8400 -82.5730 265° West 408 470 36,000  Level FlightAware
01:58PM 40.8340 -82.6750 266° West 408 470 36,000  Level FlightAware
01:59PM 40.8290 -82.7730 266° West 408 470 36,000  Level FlightAware
01:59PM 40.8220 -82.8780 265° West 408 470 36,000  Level FlightAware
02:00PM 40.8170 -82.9720 266° West 407 468 36,000  Level FlightAware
02:01PM 40.8110 -83.0700 265° West 405 466 36,000  Level FlightAware
02:01PM 40.8040 -83.1790 265° West 404 465 36,000  Level FlightAware
02:02PM 40.7980 -83.2780 265° West 406 467 36,000  Level FlightAware
02:03PM 40.7910 -83.3830 265° West 407 468 36,000  Level FlightAware
02:03PM 40.7850 -83.4870 266° West 407 468 36,000  Level FlightAware
02:04PM 40.7780 -83.5910 265° West 406 467 36,000  Level FlightAware
02:05PM 40.7710 -83.6930 265° West 405 466 36,000  Level FlightAware
02:05PM 40.7650 -83.7920 265° West 404 465 36,000  Level FlightAware
02:06PM 40.7570 -83.9000 264° West 405 466 36,000  Level FlightAware
02:07PM 40.7500 -84.0030 265° West 407 468 36,000  Level FlightAware
02:08PM 40.7430 -84.1110 265° West 409 471 36,000  Level FlightAware
02:08PM 40.7360 -84.2090 265° West 409 471 36,000  Level FlightAware
02:09PM 40.7280 -84.3170 264° West 409 471 36,000  Level FlightAware
02:10PM 40.7210 -84.4200 265° West 410 472 36,000  Level FlightAware
02:10PM 40.7130 -84.5230 264° West 410 472 36,000  Level FlightAware
02:11PM 40.7060 -84.6170 264° West 411 473 36,000  Level FlightAware
02:12PM 40.6960 -84.7530 265° West 410 472 36,000  Level FlightAware
02:13PM 40.6880 -84.8510 264° West 411 473 36,000  Level FlightAware
02:13PM 40.6790 -84.9640 264° West 412 474 36,000  Level FlightAware
02:14PM 40.6740 -85.0400 265° West 413 475 36,000  Level FlightAware
02:15PM 40.6650 -85.1490 264° West 412 474 36,000  Level FlightAware
02:15PM 40.6560 -85.2550 264° West 407 468 36,000  Level FlightAware
02:16PM 40.6490 -85.3420 264° West 411 473 36,000  Level FlightAware
02:16PM 40.6420 -85.4420 265° West 412 474 36,000  Level FlightAware
02:17PM 40.6320 -85.5520 263° West 409 471 36,000  Level FlightAware
02:18PM 40.6230 -85.6590 264° West 410 472 36,000  Level FlightAware
02:19PM 40.6150 -85.7600 264° West 412 474 36,000  Level FlightAware
02:19PM 40.6060 -85.8670 264° West 413 475 36,000  Level FlightAware
02:20PM 40.5940 -86.0040 263° West 416 479 36,000  Level FlightAware
02:21PM 40.5860 -86.0960 263° West 417 480 36,000  Level FlightAware
02:22PM 40.5770 -86.1950 263° West 417 480 36,000  Level FlightAware
02:22PM 40.5670 -86.3070 263° West 417 480 36,000  Level FlightAware
02:23PM 40.5600 -86.3890 264° West 417 480 36,000  Level FlightAware
02:24PM 40.5500 -86.4980 263° West 419 482 36,000  Level FlightAware
02:24PM 40.5400 -86.6000 263° West 418 481 36,000  Level FlightAware
02:25PM 40.5310 -86.7030 263° West 419 482 36,000  Level FlightAware
02:26PM 40.5200 -86.8160 263° West 420 483 36,000  Level FlightAware
02:26PM 40.5110 -86.9160 263° West 419 482 36,000  Level FlightAware
02:27PM 40.5010 -87.0240 263° West 419 482 36,000  Level FlightAware
02:28PM 40.4930 -87.1020 262° West 419 482 36,000  Level FlightAware
02:28PM 40.4820 -87.2130 263° West 419 482 36,000  Level FlightAware
02:29PM 40.4730 -87.3060 263° West 420 483 36,000  Level FlightAware
02:30PM 40.4630 -87.4050 262° West 421 484 36,000  Level FlightAware
02:30PM 40.4520 -87.5190 263° West 424 488 36,000  Level FlightAware
02:31PM 40.4410 -87.6230 262° West 425 489 36,000  Level FlightAware
02:32PM 40.4300 -87.7320 262° West 427 491 36,000  Level FlightAware
02:32PM 40.4200 -87.8300 262° West 428 493 36,000  Level FlightAware
02:33PM 40.4100 -87.9310 263° West 429 494 36,000  Level FlightAware
02:34PM 40.3980 -88.0420 262° West 432 497 36,000  Level FlightAware
02:34PM 40.3870 -88.1510 262° West 433 498 36,000  Level FlightAware
02:35PM 40.3750 -88.2560 262° West 433 498 36,000  Level FlightAware
02:36PM 40.3640 -88.3610 262° West 432 497 36,000  Level FlightAware
02:37PM 40.3510 -88.4810 262° West 431 496 36,000  Level FlightAware
02:37PM 40.3420 -88.5630 262° West 430 495 36,000  Level FlightAware
02:38PM 40.3300 -88.6710 262° West 429 494 36,000  Level FlightAware
02:38PM 40.3170 -88.7870 262° West 429 494 36,000  Level FlightAware
02:39PM 40.3070 -88.8750 262° West 429 494 36,000  Level FlightAware
02:40PM 40.2960 -88.9800 262° West 429 494 36,000  Level FlightAware
02:40PM 40.2830 -89.0940 262° West 431 496 36,000  Level FlightAware
02:41PM 40.2720 -89.1900 261° West 431 496 36,000  Level FlightAware
02:42PM 40.2580 -89.3070 261° West 431 496 36,000  Level FlightAware
02:43PM 40.2450 -89.4200 261° West 428 493 36,000  Level FlightAware
02:43PM 40.2320 -89.5280 261° West 425 489 36,000  Level FlightAware
02:44PM 40.2220 -89.6090 261° West 424 488 36,000  Level FlightAware
02:45PM 40.2090 -89.7170 261° West 422 486 36,000  Level FlightAware
02:45PM 40.1960 -89.8240 261° West 421 484 36,000  Level FlightAware
02:46PM 40.1850 -89.9140 261° West 421 484 36,000  Level FlightAware
02:47PM 40.1720 -90.0250 261° West 420 483 36,000 60 Level FlightAware
02:47PM 40.1600 -90.1270 261° West 423 487 36,100 180 Climbing FlightAware
02:48PM 40.1450 -90.2360 260° West 425 489 36,300 660 Climbing FlightAware
02:49PM 40.1320 -90.3450 261° West 416 479 37,100 600 Climbing FlightAware
02:49PM 40.1210 -90.4250 260° West 416 479 37,100 600 Level FlightAware
02:50PM 40.1050 -90.5580 261° West 420 483 38,000 600 Climbing FlightAware
02:51PM 40.0920 -90.6610 261° West 418 481 38,000  Level FlightAware
02:52PM 40.0750 -90.7880 260° West 415 478 38,000  Level FlightAware
02:53PM 40.0540 -90.9490 260° West 411 473 38,000  Level FlightAware
02:54PM 40.0380 -91.0680 260° West 412 474 38,000  Level FlightAware
02:54PM 40.0230 -91.1850 261° West 410 472 38,000  Level FlightAware
02:55PM 40.0080 -91.2970 260° West 411 473 38,000  Level FlightAware
02:56PM 39.9940 -91.4000 260° West 413 475 38,000  Level FlightAware
02:56PM 39.9830 -91.4840 260° West 415 478 38,000  Level FlightAware
02:57PM 39.9640 -91.6210 260° West 415 478 38,000  Level FlightAware
02:58PM 39.9510 -91.7190 260° West 415 478 38,000  Level FlightAware
02:59PM 39.9360 -91.8260 260° West 415 478 38,000  Level FlightAware
02:59PM 39.9210 -91.9330 260° West 414 476 38,000  Level FlightAware
03:00PM 39.9120 -91.9890 258° West 414 476 38,000  Level FlightAware
03:01PM 39.8940 -92.1210 260° West 413 475 38,000  Level FlightAware
03:01PM 39.8790 -92.2230 259° West 414 476 38,000  Level FlightAware
03:02PM 39.8670 -92.3070 259° West 414 476 38,000  Level FlightAware
03:03PM 39.8500 -92.4240 259° West 412 474 38,000  Level FlightAware
03:04PM 39.8300 -92.5560 259° West 412 474 38,000  Level FlightAware
03:05PM 39.8120 -92.6850 260° West 412 474 38,000  Level FlightAware
03:05PM 39.8010 -92.7600 259° West 412 474 38,000  Level FlightAware
03:06PM 39.7730 -92.9500 259° West 414 476 38,000  Level FlightAware
03:07PM 39.7580 -93.0470 259° West 415 478 38,000  Level FlightAware
03:07PM 39.7495 -93.1059 259° West 416 479 38,000  Level FlightAware ADS-B
03:08PM 39.7383 -93.1796 259° West 417 480 38,000  Level FlightAware ADS-B
03:08PM 39.7270 -93.2543 259° West 418 481 38,000  Level FlightAware ADS-B
03:09PM 39.7099 -93.3652 259° West 418 481 38,000  Level FlightAware ADS-B
03:10PM 39.6982 -93.4412 259° West 418 481 38,000  Level FlightAware ADS-B
03:10PM 39.6865 -93.5172 259° West 419 482 38,000  Level FlightAware ADS-B
03:11PM 39.6749 -93.5917 259° West 419 482 38,000  Level FlightAware ADS-B
03:11PM 39.6627 -93.6690 258° West 421 484 38,000  Level FlightAware ADS-B
03:12PM 39.6511 -93.7429 258° West 423 487 38,000  Level FlightAware ADS-B
03:13PM 39.6330 -93.8582 259° West 423 487 38,000  Level FlightAware ADS-B
03:13PM 39.6218 -93.9327 259° West 422 486 38,000  Level FlightAware ADS-B
03:14PM 39.6117 -94.0101 260° West 421 484 38,000  Level FlightAware ADS-B
03:14PM 39.6020 -94.0830 260° West 421 484 38,000  Level FlightAware
03:15PM 39.5916 -94.1588 260° West 420 483 38,000  Level FlightAware ADS-B
03:15PM 39.5807 -94.2391 260° West 423 487 38,000  Level FlightAware ADS-B
03:16PM 39.5650 -94.3553 260° West 422 486 38,000  Level FlightAware ADS-B
03:17PM 39.5511 -94.4560 260° West 423 487 38,000  Level FlightAware ADS-B
03:17PM 39.5406 -94.5309 260° West 423 487 38,000  Level FlightAware ADS-B
03:18PM 39.5266 -94.6305 260° West 423 487 38,000  Level FlightAware ADS-B
03:18PM 39.5152 -94.7106 260° West 424 488 38,000  Level FlightAware ADS-B
03:19PM 39.5040 -94.7890 260° West 424 488 38,000  Level FlightAware
03:19PM 39.5006 -94.8143 260° West 425 489 38,000  Level FlightAware ADS-B
03:20PM 39.4890 -94.8970 260° West 425 489 38,000  Level FlightAware
03:20PM 39.4743 -94.9979 259° West 425 489 38,000  Level FlightAware ADS-B
03:21PM 39.4630 -95.0766 259° West 424 488 38,000  Level FlightAware ADS-B
03:21PM 39.4515 -95.1550 259° West 423 487 38,000  Level FlightAware ADS-B
03:22PM 39.4403 -95.2322 259° West 422 486 38,000  Level FlightAware ADS-B
03:22PM 39.4273 -95.3203 259° West 422 486 38,000  Level FlightAware ADS-B
03:23PM 39.4160 -95.3961 259° West 421 484 38,000  Level FlightAware ADS-B
03:23PM 39.4045 -95.4735 259° West 422 486 38,000  Level FlightAware ADS-B
03:24PM 39.3930 -95.5504 259° West 423 487 38,000  Level FlightAware ADS-B
03:24PM 39.3819 -95.6249 259° West 424 488 38,000  Level FlightAware ADS-B
03:25PM 39.3673 -95.7224 259° West 425 489 38,000  Level FlightAware ADS-B
03:26PM 39.3559 -95.7980 259° West 427 491 38,000  Level FlightAware ADS-B
03:26PM 39.3441 -95.8760 259° West 429 494 38,000  Level FlightAware ADS-B
03:27PM 39.3254 -95.9981 259° West 430 495 38,000  Level FlightAware ADS-B
03:27PM 39.3124 -96.0829 259° West 431 496 38,000  Level FlightAware ADS-B
03:28PM 39.2992 -96.1685 259° West 433 498 38,000  Level FlightAware ADS-B
03:29PM 39.2866 -96.2489 259° West 434 499 38,000  Level FlightAware ADS-B
03:29PM 39.2745 -96.3266 259° West 434 499 38,000  Level FlightAware ADS-B
03:30PM 39.2609 -96.4124 258° West 434 499 38,000  Level FlightAware ADS-B
03:30PM 39.2464 -96.5047 259° West 435 501 38,000  Level FlightAware ADS-B
03:31PM 39.2343 -96.5815 259° West 435 501 38,000  Level FlightAware ADS-B
03:31PM 39.2220 -96.6594 259° West 436 502 38,000  Level FlightAware ADS-B
03:32PM 39.2097 -96.7358 258° West 437 503 38,000  Level FlightAware ADS-B
03:32PM 39.1974 -96.8123 258° West 437 503 38,000  Level FlightAware ADS-B
03:33PM 39.1849 -96.8895 258° West 438 504 38,000  Level FlightAware ADS-B
03:33PM 39.1726 -96.9662 258° West 438 504 38,000  Level FlightAware ADS-B
03:34PM 39.1594 -97.0468 258° West 439 505 38,000  Level FlightAware ADS-B
03:34PM 39.1462 -97.1273 258° West 437 503 38,000  Level FlightAware ADS-B
03:35PM 39.1316 -97.2163 258° West 438 504 38,000  Level FlightAware ADS-B
03:35PM 39.1193 -97.2909 258° West 437 503 38,000  Level FlightAware ADS-B
03:36PM 39.1060 -97.3715 258° West 439 505 38,000  Level FlightAware ADS-B
03:37PM 39.0922 -97.4538 258° West 439 505 38,000  Level FlightAware ADS-B
03:37PM 39.0785 -97.5357 258° West 440 506 38,000  Level FlightAware ADS-B
03:38PM 39.0654 -97.6141 258° West 440 506 38,000  Level FlightAware ADS-B
03:38PM 39.0524 -97.6909 258° West 441 507 38,000  Level FlightAware ADS-B
03:39PM 39.0392 -97.7684 258° West 442 509 38,000  Level FlightAware ADS-B
03:39PM 39.0259 -97.8471 258° West 442 509 38,000  Level FlightAware ADS-B
03:40PM 39.0120 -97.9281 258° West 443 510 38,000  Level FlightAware ADS-B
03:40PM 38.9940 -98.0330 258° West 443 510 38,000  Level FlightAware
03:41PM 38.9810 -98.1191 259° West 442 509 38,000  Level FlightAware ADS-B
03:41PM 38.9687 -98.1982 259° West 443 510 38,000  Level FlightAware ADS-B
03:42PM 38.9565 -98.2755 259° West 443 510 38,000  Level FlightAware ADS-B
03:42PM 38.9440 -98.3550 259° West 443 510 38,000  Level FlightAware ADS-B
03:43PM 38.9290 -98.4480 258° West 443 510 38,000  Level FlightAware
03:43PM 38.9161 -98.5298 259° West 442 509 38,000  Level FlightAware ADS-B
03:44PM 38.9033 -98.6092 258° West 443 510 38,000  Level FlightAware ADS-B
03:45PM 38.8739 -98.7913 258° West 443 510 38,000  Level FlightAware ADS-B
03:46PM 38.8597 -98.8782 258° West 443 510 38,000  Level FlightAware ADS-B
03:47PM 38.8348 -99.0293 258° West 444 511 38,000  Level FlightAware ADS-B
03:48PM 38.8189 -99.1286 258° West 443 510 38,000  Level Denver Center
03:49PM 38.7892 -99.3017 258° West 445 512 38,000  Level Denver Center
03:50PM 38.7653 -99.4492 258° West 443 510 38,000  Level Denver Center
03:51PM 38.7353 -99.6231 258° West 448 516 38,000  Level Denver Center
03:52PM 38.7100 -99.7711 258° West 448 516 38,000  Level Denver Center
03:53PM 38.6778 -99.9717 258° West 449 517 38,000  Level Kansas City Center
03:54PM 38.6469 -100.1464 257° West 452 520 38,000  Level Kansas City Center
03:55PM 38.6197 -100.2956 257° West 451 519 38,000  Level Kansas City Center
03:56PM 38.5886 -100.4694 257° West 451 519 38,000  Level Kansas City Center
03:57PM 38.5622 -100.6189 257° West 453 521 38,000  Level Kansas City Center
04:03PM 38.3914 -101.5410 257° West 457 526 38,000  Level FlightAware ADS-B
04:03PM 38.3763 -101.6200 256° West 457 526 38,000  Level FlightAware ADS-B
04:04PM 38.3613 -101.6990 256° West 458 527 38,000  Level FlightAware ADS-B
04:04PM 38.3459 -101.7810 257° West 458 527 38,000  Level FlightAware ADS-B
04:05PM 38.3350 -101.8620 260° West 456 525 38,000  Level FlightAware ADS-B
04:05PM 38.3297 -101.9460 265° West 454 522 38,000  Level FlightAware ADS-B
04:06PM 38.3244 -102.0280 265° West 454 522 38,000  Level FlightAware ADS-B
04:06PM 38.3191 -102.1110 265° West 454 522 38,000  Level FlightAware ADS-B
04:07PM 38.3136 -102.1920 265° West 454 522 38,000  Level FlightAware ADS-B
04:07PM 38.3085 -102.2690 265° West 453 521 38,000  Level FlightAware ADS-B
04:08PM 38.3029 -102.3520 265° West 453 521 38,000  Level FlightAware ADS-B
04:08PM 38.2975 -102.4320 265° West 453 521 38,000  Level FlightAware ADS-B
04:09PM 38.2921 -102.5110 265° West 453 521 38,000  Level FlightAware ADS-B
04:09PM 38.2867 -102.5920 265° West 452 520 38,000  Level FlightAware ADS-B
04:10PM 38.2811 -102.6700 265° West 452 520 38,000  Level FlightAware ADS-B
04:10PM 38.2752 -102.7520 265° West 452 520 38,000  Level FlightAware ADS-B
04:11PM 38.2697 -102.8310 265° West 451 519 38,000  Level FlightAware ADS-B
04:12PM 38.2640 -102.9110 265° West 452 520 38,000  Level FlightAware ADS-B
04:12PM 38.2584 -102.9880 265° West 451 519 38,000  Level FlightAware ADS-B
04:13PM 38.2523 -103.0730 265° West 450 518 38,000  Level FlightAware ADS-B
04:13PM 38.2498 -103.1120 265° West 450 518 38,000  Level FlightAware ADS-B
04:13PM 38.2497 -103.1390 270° West 448 516 38,000  Level FlightAware ADS-B
04:13PM 38.2540 -103.2240 274° West 447 514 38,000  Level FlightAware ADS-B
04:14PM 38.2577 -103.3060 273° West 447 514 38,000  Level FlightAware ADS-B
04:15PM 38.2613 -103.3860 273° West 446 513 38,000  Level FlightAware ADS-B
04:15PM 38.2650 -103.4650 273° West 447 514 38,000  Level FlightAware ADS-B
04:16PM 38.2685 -103.5460 273° West 447 514 38,000  Level FlightAware ADS-B
04:16PM 38.2723 -103.6280 273° West 448 516 38,000  Level FlightAware ADS-B
04:17PM 38.2758 -103.7080 273° West 449 517 38,000  Level FlightAware ADS-B
04:17PM 38.2794 -103.7900 273° West 450 518 38,000  Level FlightAware ADS-B
04:18PM 38.2828 -103.8690 273° West 450 518 38,000  Level FlightAware ADS-B
04:18PM 38.2862 -103.9530 273° West 450 518 38,000  Level FlightAware ADS-B
04:19PM 38.2895 -104.0360 273° West 449 517 38,000  Level FlightAware ADS-B
04:19PM 38.2928 -104.1180 273° West 447 514 38,000  Level FlightAware ADS-B
04:20PM 38.2959 -104.1980 273° West 447 514 38,000  Level FlightAware ADS-B
04:20PM 38.2991 -104.2810 273° West 445 512 38,000  Level FlightAware ADS-B
04:21PM 38.3025 -104.3710 273° West 444 511 38,000  Level FlightAware ADS-B
04:21PM 38.3066 -104.4500 274° West 445 512 38,000  Level FlightAware ADS-B
04:22PM 38.3167 -104.5280 279° West 444 511 38,000  Level FlightAware ADS-B
04:22PM 38.3311 -104.6010 284° West 445 512 38,000  Level FlightAware ADS-B
04:23PM 38.3509 -104.7010 284° West 447 514 38,000  Level FlightAware ADS-B
04:24PM 38.3741 -104.8180 284° West 446 513 38,000  Level FlightAware ADS-B
04:24PM 38.3908 -104.9020 284° West 447 514 38,000  Level FlightAware ADS-B
04:25PM 38.4060 -104.9790 284° West 448 516 38,000  Level FlightAware ADS-B
04:25PM 38.4217 -105.0570 284° West 447 514 38,000  Level FlightAware ADS-B
04:26PM 38.4386 -105.1380 285° West 447 514 38,000  Level FlightAware ADS-B
04:26PM 38.4538 -105.2130 285° West 448 516 38,000  Level FlightAware ADS-B
04:27PM 38.4705 -105.2940 285° West 448 516 38,000  Level FlightAware ADS-B
04:27PM 38.4864 -105.3720 285° West 447 514 38,000  Level FlightAware ADS-B
04:28PM 38.5020 -105.4480 285° West 446 513 38,000  Level FlightAware ADS-B
04:28PM 38.5177 -105.5250 285° West 447 514 38,000  Level FlightAware ADS-B
04:29PM 38.5343 -105.6060 285° West 447 514 38,000  Level FlightAware ADS-B
04:29PM 38.5443 -105.6570 284° West 447 514 38,000  Level FlightAware ADS-B
04:30PM 38.5551 -105.7370 280° West 448 516 38,000  Level FlightAware ADS-B
04:30PM 38.5596 -105.7750 279° West 448 516 38,000  Level FlightAware ADS-B
04:30PM 38.5618 -105.8030 276° West 448 516 38,000  Level FlightAware ADS-B
04:31PM 38.5634 -105.8730 272° West 449 517 38,000  Level FlightAware ADS-B
04:31PM 38.5623 -105.9530 269° West 448 516 38,000  Level FlightAware ADS-B
04:32PM 38.5617 -106.0380 270° West 448 516 38,000  Level FlightAware ADS-B
04:32PM 38.5620 -106.1610 270° West 446 513 38,000  Level FlightAware ADS-B
04:33PM 38.5619 -106.2410 270° West 445 512 38,000  Level FlightAware ADS-B
04:33PM 38.5616 -106.3230 270° West 443 510 38,000  Level FlightAware ADS-B
04:34PM 38.5613 -106.4020 270° West 444 511 38,000  Level FlightAware ADS-B
04:34PM 38.5610 -106.4810 270° West 443 510 38,000  Level FlightAware ADS-B
04:35PM 38.5606 -106.5610 270° West 443 510 38,000  Level FlightAware ADS-B
04:35PM 38.5607 -106.6350 270° West 442 509 38,000  Level FlightAware ADS-B
04:36PM 38.5642 -106.6840 275° West 443 510 38,000  Level FlightAware ADS-B
04:36PM 38.5697 -106.7170 282° West 443 510 38,000  Level FlightAware ADS-B
04:36PM 38.5876 -106.7950 286° West 444 511 38,000  Level FlightAware ADS-B
04:37PM 38.6018 -106.8490 289° West 444 511 38,000  Level FlightAware ADS-B
04:37PM 38.6327 -106.9440 293° West 445 512 38,000  Level FlightAware ADS-B
04:38PM 38.6646 -107.0440 292° West 445 512 38,000  Level FlightAware ADS-B
04:39PM 38.6906 -107.1270 292° West 444 511 38,000  Level FlightAware ADS-B
04:39PM 38.7144 -107.2030 292° West 445 512 38,000  Level FlightAware ADS-B
04:40PM 38.7309 -107.2560 292° West 444 511 38,000  Level FlightAware ADS-B
04:40PM 38.7379 -107.2830 288° West 444 511 38,000  Level FlightAware ADS-B
04:40PM 38.7459 -107.3310 282° West 441 507 38,000  Level FlightAware ADS-B
04:40PM 38.7488 -107.3700 275° West 440 506 38,000  Level FlightAware ADS-B
04:41PM 38.7493 -107.4090 271° West 439 505 38,000  Level FlightAware ADS-B
04:41PM 38.7470 -107.4900 268° West 438 504 38,000  Level FlightAware ADS-B
04:42PM 38.7430 -107.6170 268° West 441 507 38,000  Level FlightAware
04:43PM 38.7410 -107.7140 269° West 441 507 38,000  Level FlightAware
04:43PM 38.7380 -107.8310 268° West 442 509 38,000  Level FlightAware
04:44PM 38.7350 -107.9460 268° West 443 510 38,000  Level FlightAware
04:45PM 38.7330 -108.0400 268° West 444 511 38,000  Level FlightAware
04:45PM 38.7300 -108.1480 268° West 439 505 38,000  Level FlightAware
04:46PM 38.7270 -108.2530 268° West 442 509 38,000  Level FlightAware
04:47PM 38.7240 -108.3540 268° West 441 507 38,000  Level FlightAware
04:47PM 38.7210 -108.4530 268° West 441 507 38,000  Level FlightAware
04:48PM 38.7180 -108.5600 268° West 441 507 38,000  Level FlightAware
04:49PM 38.7140 -108.6700 267° West 441 507 38,000  Level FlightAware
04:49PM 38.7120 -108.7580 268° West 442 509 38,000  Level FlightAware
04:50PM 38.7080 -108.8800 268° West 442 509 38,000  Level FlightAware
04:51PM 38.7040 -108.9830 267° West 440 506 38,000  Level FlightAware
04:51PM 38.7000 -109.0980 267° West 439 505 38,000  Level FlightAware
04:52PM 38.6960 -109.1990 267° West 439 505 38,000  Level FlightAware
04:53PM 38.6920 -109.3020 267° West 439 505 38,000  Level FlightAware
04:53PM 38.6890 -109.3820 267° West 439 505 38,000  Level FlightAware
04:54PM 38.6850 -109.4910 267° West 440 506 38,000  Level FlightAware
04:55PM 38.6810 -109.5960 267° West 441 507 38,000  Level FlightAware
04:55PM 38.6770 -109.7090 267° West 440 506 38,000  Level FlightAware
04:56PM 38.6720 -109.8140 267° West 437 503 38,000  Level FlightAware
04:57PM 38.6670 -109.9320 267° West 439 505 38,000  Level FlightAware
04:57PM 38.6630 -110.0350 267° West 438 504 38,000  Level FlightAware
04:58PM 38.6580 -110.1430 267° West 436 502 38,000  Level FlightAware
04:59PM 38.6530 -110.2560 267° West 437 503 38,000  Level FlightAware
05:00PM 38.6480 -110.3570 266° West 438 504 38,000  Level FlightAware
05:00PM 38.6430 -110.4750 267° West 439 505 38,000  Level FlightAware
05:01PM 38.6390 -110.5520 266° West 440 506 38,000  Level FlightAware
05:02PM 38.6330 -110.6640 266° West 438 504 38,000  Level FlightAware
05:02PM 38.6280 -110.7670 266° West 437 503 38,000  Level FlightAware
05:03PM 38.6230 -110.8730 267° West 435 501 38,000  Level FlightAware
05:03PM 38.6180 -110.9670 266° West 434 499 38,000  Level FlightAware
05:04PM 38.6130 -111.0680 266° West 437 503 38,000  Level FlightAware
05:05PM 38.6070 -111.1740 266° West 441 507 38,000  Level FlightAware
05:06PM 38.6010 -111.2900 266° West 445 512 38,000  Level FlightAware
05:06PM 38.5960 -111.3870 266° West 439 505 38,000  Level FlightAware
05:07PM 38.5929 -111.4410 266° West 438 504 38,000  Level FlightAware ADS-B
05:07PM 38.5882 -111.5200 266° West 437 503 38,000  Level FlightAware ADS-B
05:08PM 38.5838 -111.5960 266° West 436 502 38,000  Level FlightAware ADS-B
05:08PM 38.5786 -111.6840 266° West 437 503 38,000  Level FlightAware ADS-B
05:09PM 38.5741 -111.7660 266° West 437 503 38,000  Level FlightAware ADS-B
05:09PM 38.5670 -111.8830 266° West 437 503 38,000  Level FlightAware ADS-B
05:10PM 38.5620 -111.9080 256° West 437 503 38,000  Level FlightAware
05:10PM 38.5595 -112.0060 268° West 437 503 38,000  Level FlightAware ADS-B
05:11PM 38.5508 -112.1510 266° West 438 504 38,000  Level FlightAware ADS-B
05:12PM 38.5459 -112.2320 266° West 437 503 38,000  Level FlightAware ADS-B
05:12PM 38.5391 -112.3360 265° West 438 504 38,000  Level FlightAware ADS-B
05:13PM 38.5336 -112.4190 265° West 438 504 38,000  Level FlightAware ADS-B
05:14PM 38.5263 -112.5340 265° West 439 505 38,000  Level FlightAware ADS-B
05:14PM 38.5214 -112.6120 265° West 440 506 38,000  Level FlightAware ADS-B
05:15PM 38.5155 -112.7010 265° West 443 510 38,000  Level FlightAware ADS-B
05:15PM 38.5099 -112.7850 265° West 445 512 38,000  Level FlightAware ADS-B
05:16PM 38.5042 -112.8670 265° West 447 514 38,000  Level FlightAware ADS-B
05:16PM 38.4988 -112.9470 265° West 444 511 38,000  Level FlightAware ADS-B
05:17PM 38.4928 -113.0406 265° West 444 511 38,000  Level Salt Lake Center
05:18PM 38.4822 -113.1953 265° West 441 507 38,000  Level Salt Lake Center
05:19PM 38.4683 -113.3825 265° West 445 512 38,000  Level Salt Lake Center
05:20PM 38.4578 -113.5378 265° West 442 509 38,000  Level Salt Lake Center
05:21PM 38.4456 -113.6903 264° West 438 504 38,000  Level Salt Lake Center
05:22PM 38.4339 -113.8422 264° West 434 499 38,000  Level Salt Lake Center
05:23PM 38.4231 -113.9944 265° West 435 501 38,000  Level Salt Lake Center
05:24PM 38.4083 -114.1808 264° West 441 507 38,000  Level Salt Lake Center
05:25PM 38.3953 -114.3356 264° West 440 506 38,000  Level Salt Lake Center
05:31PM 38.3230 -115.1890 264° West 433 498 38,000  Level FlightAware
05:32PM 38.3100 -115.3220 263° West 433 498 38,000  Level FlightAware
05:32PM 38.3020 -115.4000 263° West 433 498 38,000  Level FlightAware
05:33PM 38.2920 -115.5030 263° West 433 498 38,000  Level FlightAware
05:34PM 38.2850 -115.5810 264° West 433 498 38,000  Level FlightAware
05:35PM 38.2750 -115.6840 263° West 433 498 38,000  Level FlightAware
05:35PM 38.2670 -115.7620 263° West 433 498 38,000  Level FlightAware
05:36PM 38.2570 -115.8650 263° West 433 498 38,000  Level FlightAware
05:40PM 38.1880 -116.6090 263° West 436 502 38,000  Level FlightAware
05:41PM 38.1740 -116.7420 262° West 438 504 38,000  Level FlightAware
05:42PM 38.1650 -116.8220 262° West 438 504 38,000  Level FlightAware
05:43PM 38.1540 -116.9260 262° West 438 504 38,000  Level FlightAware
05:43PM 38.1450 -117.0040 262° West 438 504 38,000  Level FlightAware
05:44PM 38.1330 -117.1080 262° West 438 504 38,000  Level FlightAware
05:45PM 38.1250 -117.1880 263° West 438 504 38,000  Level FlightAware
05:45PM 38.1160 -117.2660 262° West 438 504 38,000  Level FlightAware
05:46PM 38.1040 -117.3730 262° West 438 504 38,000  Level FlightAware
05:47PM 38.0500 -117.5700 251° West 431 496 38,000  Level FlightAware
05:47PM 38.0240 -117.6800 253° West 430 495 38,000  Level FlightAware
05:48PM 38.0000 -117.7780 253° West 430 495 38,000  Level FlightAware
05:49PM 37.9870 -117.9260 264° West 436 502 38,000  Level FlightAware
05:50PM 37.9770 -118.0120 262° West 436 502 38,000  Level FlightAware
05:51PM 37.9660 -118.1180 263° West 436 502 38,000  Level FlightAware
05:51PM 37.9570 -118.1950 262° West 436 502 38,000  Level FlightAware
05:52PM 37.9460 -118.2990 262° West 436 502 38,000  Level FlightAware
05:53PM 37.9290 -118.4630 263° West 434 499 38,000  Level FlightAware
05:53PM 37.9180 -118.5640 262° West 434 499 38,000  Level FlightAware
05:54PM 37.9040 -118.6860 262° West 433 498 38,000  Level FlightAware
05:55PM 37.8920 -118.7940 262° West 431 496 38,000  Level FlightAware
05:55PM 37.8810 -118.8930 262° West 431 496 38,000 -240 Level FlightAware
05:56PM 37.8700 -118.9840 261° West 433 498 37,700 -720 Descending FlightAware
05:57PM 37.8590 -119.0850 262° West 434 499 37,100 -960 Descending FlightAware
05:57PM 37.8460 -119.1940 261° West 435 501 36,400 -840 Descending FlightAware
05:58PM 37.8360 -119.2840 262° West 438 504 36,000 -360 Descending FlightAware
05:59PM 37.8240 -119.3860 262° West 437 503 36,000  Level FlightAware
05:59PM 37.8110 -119.4970 262° West 435 501 36,000 -120 Level FlightAware
06:00PM 37.7990 -119.5960 261° West 434 499 35,900 -540 Descending FlightAware
06:01PM 37.7860 -119.7010 261° West 430 495 35,300 -960 Descending FlightAware
06:01PM 37.7740 -119.8030 262° West 433 498 34,600 -1,080 Descending FlightAware
06:02PM 37.7600 -119.9180 261° West 439 505 33,800 -1,020 Descending FlightAware
06:03PM 37.7460 -120.0280 261° West 441 507 33,100 -1,020 Descending FlightAware
06:04PM 37.7330 -120.1310 261° West 439 505 32,400 -1,020 Descending FlightAware
06:04PM 37.7210 -120.2320 261° West 440 506 31,800 -960 Descending FlightAware
06:05PM 37.7070 -120.3400 261° West 446 513 31,100 -1,020 Descending FlightAware
06:06PM 37.6930 -120.4510 261° West 446 513 30,400 -1,080 Descending FlightAware
06:06PM 37.6780 -120.5660 261° West 449 517 29,600 -1,500 Descending FlightAware
06:07PM 37.6670 -120.6490 261° West 449 517 28,500 -2,220 Descending FlightAware
06:07PM 37.6605 -120.7020 261° West 452 520 27,700 -2,820 Descending FlightAware ADS-B
06:08PM 37.6390 -120.8670 261° West 462 532 24,600 -3,120 Descending FlightAware
06:09PM 37.6230 -120.9840 260° West 449 517 22,100 -2,820 Descending FlightAware
06:10PM 37.6120 -121.0890 262° West 415 478 20,600 -2,400 Descending FlightAware
06:10PM 37.5930 -121.1480 248° West 395 455 19,400 -2,160 Descending FlightAware
06:11PM 37.5280 -121.2100 217° Southwest 373 429 17,900 -1,920 Descending FlightAware
06:11PM 37.5041 -121.2300 214° Southwest 364 419 17,400 -2,040 Descending FlightAware ADS-B
06:12PM 37.4880 -121.2500 225° Southwest 349 402 17,000 -1,920 Descending FlightAware ADS-B
06:12PM 37.4778 -121.2700 237° Southwest 336 387 16,600 -2,160 Descending FlightAware ADS-B
06:12PM 37.4747 -121.2780 244° Southwest 331 381 16,400 -3,000 Descending FlightAware ADS-B
06:13PM 37.4725 -121.3500 268° West 327 376 14,400 -3,060 Descending FlightAware ADS-B
06:13PM 37.4860 -121.3980 290° West 333 383 13,100 -2,280 Descending FlightAware ADS-B
06:13PM 37.5020 -121.4540 290° West 325 374 12,200 -1,800 Descending FlightAware ADS-B
06:14PM 37.5172 -121.5080 290° West 319 367 11,300 -1,200 Descending FlightAware ADS-B
06:14PM 37.5320 -121.5610 289° West 300 345 11,000 -300 Descending FlightAware ADS-B
06:15PM 37.5455 -121.6070 290° West 269 310 11,000  Level FlightAware ADS-B
06:15PM 37.5477 -121.6160 287° West 262 302 11,000  Level FlightAware ADS-B
06:15PM 37.5484 -121.6250 276° West 257 296 11,000  Level FlightAware ADS-B
06:15PM 37.5481 -121.6310 266° West 254 292 11,000  Level FlightAware ADS-B
06:15PM 37.5471 -121.6370 258° West 254 292 11,000  Level FlightAware ADS-B
06:15PM 37.5449 -121.6450 251° West 250 288 11,000 -900 Level FlightAware ADS-B
06:16PM 37.5339 -121.6830 250° West 244 281 10,500 -1,080 Descending FlightAware ADS-B
06:16PM 37.5239 -121.7220 252° West 240 276 10,000 -1,260 Descending FlightAware ADS-B
06:17PM 37.5186 -121.7420 252° West 241 277 9,600 -1,620 Descending FlightAware ADS-B
06:17PM 37.5131 -121.7620 251° West 243 280 9,200 -1,440 Descending FlightAware ADS-B
06:17PM 37.5076 -121.7820 251° West 243 280 8,900 -1,200 Descending FlightAware ADS-B
06:17PM 37.5020 -121.8030 251° West 240 276 8,600 -1,200 Descending FlightAware ADS-B
06:18PM 37.4964 -121.8240 251° West 240 276 8,300 -780 Descending FlightAware ADS-B
06:18PM 37.4908 -121.8450 251° West 241 277 8,200 -540 Descending FlightAware ADS-B
06:18PM 37.4845 -121.8680 251° West 238 274 8,000 -600 Descending FlightAware ADS-B
06:18PM 37.4836 -121.8730 257° West 238 274 8,000  Level FlightAware ADS-B
06:18PM 37.4829 -121.8790 262° West 238 274 8,000 -900 Level FlightAware ADS-B
06:18PM 37.4829 -121.8830 270° West 239 275 7,900 -1,020 Descending FlightAware ADS-B
06:18PM 37.4833 -121.8870 277° West 240 276 7,900 -900 Level FlightAware ADS-B
06:19PM 37.4842 -121.8920 283° West 239 275 7,800 -900 Descending FlightAware ADS-B
06:19PM 37.4885 -121.9130 284° West 232 267 7,600 -600 Descending FlightAware ADS-B
06:19PM 37.4927 -121.9330 285° West 224 258 7,500 -600 Descending FlightAware ADS-B
06:19PM 37.4966 -121.9530 284° West 215 247 7,300 -780 Descending FlightAware ADS-B
06:20PM 37.5000 -121.9710 283° West 206 237 7,100 -780 Descending FlightAware ADS-B
06:20PM 37.5034 -121.9890 283° West 199 229 6,900 -960 Descending FlightAware ADS-B
06:20PM 37.5055 -122.0000 284° West 198 228 6,700 -1,320 Descending FlightAware ADS-B
06:20PM 37.5066 -122.0040 289° West 197 227 6,600 -1,200 Descending FlightAware ADS-B
06:20PM 37.5117 -122.0210 291° West 197 227 6,300 -1,020 Descending FlightAware ADS-B
06:21PM 37.5169 -122.0380 291° West 188 216 6,100 -840 Descending FlightAware ADS-B
06:21PM 37.5216 -122.0520 293° West 182 209 5,900 -1,020 Descending FlightAware ADS-B
06:21PM 37.5259 -122.0670 290° West 182 209 5,600 -1,200 Descending FlightAware ADS-B
06:21PM 37.5311 -122.0830 292° West 182 209 5,300 -1,080 Descending FlightAware ADS-B
06:22PM 37.5353 -122.0970 291° West 179 206 5,100 -840 Descending FlightAware ADS-B
06:22PM 37.5398 -122.1110 292° West 176 203 4,900 -1,020 Descending FlightAware ADS-B
06:22PM 37.5458 -122.1310 291° West 176 203 4,500 -1,260 Descending FlightAware ADS-B
06:22PM 37.5500 -122.1450 291° West 178 205 4,200 -1,200 Descending FlightAware ADS-B
06:23PM 37.5548 -122.1600 292° West 175 201 3,900 -900 Descending FlightAware ADS-B
06:23PM 37.5580 -122.1700 292° West 171 197 3,800 -720 Descending FlightAware ADS-B
06:23PM 37.5623 -122.1840 291° West 168 193 3,600 -1,080 Descending FlightAware ADS-B
06:23PM 37.5661 -122.1970 290° West 165 190 3,300 -1,260 Descending FlightAware ADS-B
06:24PM 37.5703 -122.2100 292° West 167 192 3,000 -1,200 Descending FlightAware ADS-B
06:24PM 37.5746 -122.2240 291° West 168 193 2,700 -960 Descending FlightAware ADS-B
06:24PM 37.5775 -122.2340 290° West 166 191 2,600 -720 Descending FlightAware ADS-B
06:24PM 37.5793 -122.2390 294° West 166 191 2,500 -1,020 Descending FlightAware ADS-B
06:24PM 37.5806 -122.2450 285° West 164 189 2,400 -1,200 Descending FlightAware ADS-B
06:24PM 37.5830 -122.2590 282° West 162 186 2,100 -1,020 Descending FlightAware ADS-B
06:25PM 37.5852 -122.2720 282° West 155 178 1,900 -960 Descending FlightAware ADS-B
06:25PM 37.5857 -122.2750 282° West 150 173 1,800 -1,440 Descending FlightAware ADS-B
06:25PM 37.5872 -122.2830 283° West 144 166 1,600 -1,200 Descending FlightAware ADS-B
06:25PM 37.5900 -122.2960 285° West 137 158 1,300 -1,020 Descending FlightAware ADS-B
06:26PM 37.5988 -122.3220 293° West 123 142 700 -900 Descending FlightAware ADS-B
06:26PM 37.6027 -122.3320 296° West 116 133 500 -600 Descending FlightAware ADS-B
06:26PM 37.6043 -122.3350 304° West 111 128 500 -420 Level FlightAware ADS-B
06:26PM 37.6064 -122.3400 298° West 109 125 400 -660 Descending FlightAware ADS-B
06:27PM 37.6086 -122.3460 295° West 106 122 300 -660 Descending FlightAware ADS-B
06:27PM 37.6106 -122.3500 302° West 107 123 200 -600 Descending FlightAware ADS-B
06:27PM 37.6137 -122.3580 296° West 108 124 100 -480 Descending FlightAware ADS-B